Stations météo

réclame
Mon MeteoGroup
Getafe Airbase, Espagne (8225): Température de l'air & dewpoint: 16.02.2018 04:00:00 - 22.02.2018 04:00:00 (CET)Getafe Airbase, Espagne (8225): Vitesse du vent: 16.02.2018 04:00:00 - 22.02.2018 04:00:00 (CET)Getafe Airbase, Espagne (8225): Direction du vent: 16.02.2018 04:00:00 - 22.02.2018 04:00:00 (CET)Getafe Airbase, Espagne (8225): visibility: 16.02.2018 04:00:00 - 22.02.2018 04:00:00 (CET)
Date & Time tt [°C] td [°C] ff [km/h] ff [knt] dd vv [km]
22.02.2018 04:00:00 - - - - - -
22.02.2018 03:00:00 - - - - - -
22.02.2018 02:00:00 - - - - - -
22.02.2018 01:00:00 - - - - - -
22.02.2018 00:00:00 - - - - - -
21.02.2018 23:00:00 4,0 -6,0 15 8 NE 10
21.02.2018 22:00:00 5,0 -8,0 22 12 NE 10
21.02.2018 21:00:00 6,0 -7,0 31 17 NE 10
21.02.2018 20:00:00 7,0 -5,0 28 15 NE 10
21.02.2018 19:00:00 9,0 -4,0 29 16 N 10
21.02.2018 18:00:00 11,0 -5,0 29 16 N 10
21.02.2018 17:00:00 11,0 -4,0 28 15 N 10
21.02.2018 16:00:00 10,0 -4,0 29 16 N 10
21.02.2018 15:00:00 10,0 -4,0 18 10 NNE 10
21.02.2018 14:00:00 10,0 -4,0 26 14 NNE 10
21.02.2018 13:00:00 10,0 -4,0 31 17 NNE 10
21.02.2018 12:00:00 10,0 -3,0 26 14 NE 10
21.02.2018 11:00:00 9,0 -4,0 26 14 N 10
21.02.2018 10:00:00 8,0 -2,0 24 13 N 10
21.02.2018 09:00:00 7,0 -2,0 18 10 N 10
21.02.2018 08:00:00 4,0 -2,0 16 9 NNW 10
21.02.2018 07:00:00 2,0 -1,0 5 3 SW 10
21.02.2018 06:00:00 1,0 -2,0 4 2 SW 10
21.02.2018 05:00:00 - - - - - -
21.02.2018 04:00:00 - - - - - -
21.02.2018 03:00:00 - - - - - -
21.02.2018 02:00:00 - - - - - -
21.02.2018 01:00:00 - - - - - -
21.02.2018 00:00:00 - - - - - -
20.02.2018 23:00:00 8,0 0,0 11 6 NE 10
20.02.2018 22:00:00 9,0 0,0 15 8 NNE 10
20.02.2018 21:00:00 10,0 1,0 24 13 NE 10
20.02.2018 20:00:00 11,0 0,0 18 10 NNE 10
20.02.2018 19:00:00 11,0 0,0 24 13 NNE 10
20.02.2018 18:00:00 13,0 2,0 24 13 NNE 10
20.02.2018 17:00:00 14,0 2,0 24 13 NNE 10
20.02.2018 16:00:00 15,0 2,0 28 15 NE 10
20.02.2018 15:00:00 16,0 2,0 15 8 NE 10
20.02.2018 14:00:00 16,0 2,0 9 5 NE 10
20.02.2018 13:00:00 14,0 2,0 9 5 NNE 10
20.02.2018 12:00:00 14,0 3,0 5 3 NE 10
20.02.2018 11:00:00 12,0 3,0 4 2 NE 10
20.02.2018 10:00:00 10,0 4,0 4 2 S 10
20.02.2018 09:00:00 6,0 3,0 4 2 SW 10
20.02.2018 08:00:00 6,0 2,0 9 5 WNW 10
20.02.2018 07:00:00 4,0 2,0 4 2 SW 10
20.02.2018 06:00:00 3,0 1,0 4 2 SE 10
20.02.2018 05:00:00 - - - - - -
20.02.2018 04:00:00 - - - - - -
20.02.2018 03:00:00 - - - - - -
20.02.2018 02:00:00 - - - - - -
20.02.2018 01:00:00 - - - - - -
20.02.2018 00:00:00 10,0 3,0 8 4 N 10
19.02.2018 23:00:00 10,0 3,0 11 6 NE 10
19.02.2018 22:00:00 11,0 3,0 21 11 NNE 10
19.02.2018 21:00:00 11,0 3,0 24 13 N 10
19.02.2018 20:00:00 12,0 2,0 16 9 N 10
19.02.2018 19:00:00 13,0 3,0 18 10 N 10
19.02.2018 18:00:00 14,0 3,0 21 11 NNE 10
19.02.2018 17:00:00 15,0 3,0 15 8 NE 10
19.02.2018 16:00:00 15,0 2,0 15 8 NNE 10
19.02.2018 15:00:00 15,0 2,0 4 2 NNE 10
19.02.2018 14:00:00 14,0 1,0 4 2 ENE 10
19.02.2018 13:00:00 14,0 2,0 9 5 N 10
19.02.2018 12:00:00 13,0 2,0 8 4 NNE 10
19.02.2018 11:00:00 11,0 2,0 13 7 NNE 10
19.02.2018 10:00:00 9,0 2,0 9 5 NE 10
19.02.2018 09:00:00 7,0 3,0 0 0 N 10
19.02.2018 08:00:00 5,0 2,0 4 2 ESE 10
19.02.2018 07:00:00 6,0 2,0 2 1 ENE 10
19.02.2018 06:00:00 7,0 2,0 4 2 W 10
19.02.2018 05:00:00 - - - - - -
19.02.2018 04:00:00 - - - - - -
19.02.2018 03:00:00 - - - - - -
19.02.2018 02:00:00 - - - - - -
19.02.2018 01:00:00 - - - - - -
19.02.2018 00:00:00 - - - - - -
18.02.2018 23:00:00 - - - - - -
18.02.2018 22:00:00 - - - - - -
18.02.2018 21:00:00 - - - - - -
18.02.2018 20:00:00 12,0 2,0 11 6 NE 10
18.02.2018 19:00:00 12,0 1,0 15 8 ENE 10
18.02.2018 18:00:00 14,0 0,0 15 8 NNE 10
18.02.2018 17:00:00 14,0 -2,0 18 10 NE 10
18.02.2018 16:00:00 13,0 -4,0 15 8 NE 10
18.02.2018 15:00:00 13,0 -4,0 16 9 NE 10
18.02.2018 14:00:00 12,0 -6,0 15 8 ENE 10
18.02.2018 13:00:00 10,0 -3,0 13 7 N 10
18.02.2018 12:00:00 8,0 -3,0 11 6 NE 10
18.02.2018 11:00:00 7,0 -3,0 16 9 NE 10
18.02.2018 10:00:00 5,0 -2,0 9 5 NE 10
18.02.2018 09:00:00 3,0 -2,0 4 2 NE 10
18.02.2018 08:00:00 1,0 -3,0 8 4 NNE 10
18.02.2018 07:00:00 2,0 -3,0 13 7 NNE 10
18.02.2018 06:00:00 2,0 -3,0 8 4 NE 10
18.02.2018 05:00:00 - - - - - -
18.02.2018 04:00:00 - - - - - -
18.02.2018 03:00:00 - - - - - -
18.02.2018 02:00:00 - - - - - -
18.02.2018 01:00:00 - - - - - -
18.02.2018 00:00:00 - - - - - -
17.02.2018 23:00:00 - - - - - -
17.02.2018 22:00:00 - - - - - -
17.02.2018 21:00:00 - - - - - -
17.02.2018 20:00:00 10,0 4,0 13 7 NE 10
17.02.2018 19:00:00 11,0 5,0 16 9 NE 10
17.02.2018 18:00:00 12,0 5,0 22 12 NE 10
17.02.2018 17:00:00 14,0 5,0 9 5 NW 10
17.02.2018 16:00:00 14,0 5,0 9 5 WNW 10
17.02.2018 15:00:00 14,0 5,0 5 3 SW 10
17.02.2018 14:00:00 14,0 5,0 2 1 - 10
17.02.2018 13:00:00 11,0 6,0 4 2 - 10
17.02.2018 12:00:00 11,0 7,0 4 2 - 6
17.02.2018 11:00:00 9,0 8,0 8 4 ESE 3,5
17.02.2018 10:00:00 7,0 7,0 2 1 NNE 3,0
17.02.2018 09:00:00 7,0 7,0 0 0 N 1,2
17.02.2018 08:00:00 6,0 6,0 4 2 ESE 0,6
17.02.2018 07:00:00 6,0 6,0 0 0 N 1,0
17.02.2018 06:00:00 5,0 5,0 2 1 S 2,0
17.02.2018 05:00:00 - - - - - -
17.02.2018 04:00:00 - - - - - -
17.02.2018 03:00:00 - - - - - -
17.02.2018 02:00:00 - - - - - -
17.02.2018 01:00:00 - - - - - -
17.02.2018 00:00:00 - - - - - -
16.02.2018 23:00:00 - - - - - -
16.02.2018 22:00:00 - - - - - -
16.02.2018 21:00:00 8,0 7,0 9 5 SW 5
16.02.2018 20:00:00 10,0 7,0 11 6 SW 5
16.02.2018 19:00:00 12,0 8,0 11 6 SW 8
16.02.2018 18:00:00 14,0 8,0 11 6 SW 9
16.02.2018 17:00:00 15,0 8,0 9 5 SSW 10
16.02.2018 16:00:00 14,0 8,0 9 5 W 10
16.02.2018 15:00:00 14,0 8,0 5 3 SSE 10
16.02.2018 14:00:00 12,0 7,0 0 0 N 8
16.02.2018 13:00:00 10,0 6,0 5 3 - 7
16.02.2018 12:00:00 9,0 7,0 9 5 E 5
16.02.2018 11:00:00 8,0 7,0 8 4 ENE 3,5
16.02.2018 10:00:00 7,0 7,0 8 4 E 3,5
16.02.2018 09:00:00 7,0 6,0 4 2 E 3,0
16.02.2018 08:00:00 7,0 6,0 4 2 E 2,0
16.02.2018 07:00:00 7,0 7,0 4 2 ENE 2,5
16.02.2018 06:00:00 7,0 7,0 4 2 ENE 2,5
16.02.2018 05:00:00 - - - - - -
16.02.2018 04:00:00 - - - - - -

tt = Température de l'air
td = dewpoint
ff = Vitesse du vent
dd = Direction du vent
vv = visibility

stations d'obs. à proximité